Time;durP1;ratioP1;P1;durP2;ratioP2;P2;SDS_P1;SDS_P2;PMS_P1;PMS_P2;Temp;Humidity;BMP_temperature;BMP_pressure;BME280_temperature;BME280_humidity;BME280_pressure;Samples;Min_cycle;Max_cycle;Signal;HPM_P1;HPM_P2
2021/01/18 06:00:54;;;;;;;78.83;28.23;;;-0.30;97.30;;;;;;5866457;23;20574;-74
2021/01/18 06:03:29;;;;;;;79.90;24.10;;;-0.20;97.30;;;;;;4918464;29;21024;-73
2021/01/18 06:05:56;;;;;;;69.30;25.50;;;-0.20;97.30;;;;;;4918490;29;20845;-74
2021/01/18 06:08:23;;;;;;;77.97;25.97;;;-0.20;97.30;;;;;;4920113;29;20502;-74
2021/01/18 06:10:51;;;;;;;73.27;24.93;;;-0.10;97.30;;;;;;4914071;29;20459;-73
2021/01/18 06:13:33;;;;;;;82.27;25.40;;;-0.10;97.30;;;;;;4899531;29;20418;-74
2021/01/18 06:16:02;;;;;;;63.20;22.63;;;0.00;97.30;;;;;;4899731;29;20417;-74
2021/01/18 06:18:34;;;;;;;66.30;21.40;;;0.00;97.30;;;;;;4901044;29;20448;-74
2021/01/18 06:21:02;;;;;;;73.97;23.87;;;0.00;97.30;;;;;;4899128;29;20433;-74
2021/01/18 06:23:27;;;;;;;83.70;26.00;;;0.10;97.30;;;;;;4899969;29;20457;-74
2021/01/18 06:25:55;;;;;;;68.17;22.50;;;0.10;97.30;;;;;;4899431;29;20425;-74
2021/01/18 06:28:28;;;;;;;74.40;24.27;;;0.10;97.30;;;;;;4899178;29;20677;-74
2021/01/18 06:31:08;;;;;;;75.63;24.17;;;0.10;97.30;;;;;;4900415;29;20473;-74
2021/01/18 06:33:48;;;;;;;78.80;23.73;;;0.20;97.30;;;;;;4899499;29;20444;-74
2021/01/18 06:36:18;;;;;;;80.07;23.97;;;0.20;97.30;;;;;;4899096;29;20493;-74
2021/01/18 06:38:57;;;;;;;81.23;24.30;;;0.30;97.30;;;;;;4899329;29;20421;-74
2021/01/18 06:41:36;;;;;;;65.97;21.20;;;0.30;97.30;;;;;;4898861;29;20501;-75
2021/01/18 06:44:04;;;;;;;78.00;24.33;;;0.30;97.30;;;;;;4899071;29;20409;-74
2021/01/18 06:46:34;;;;;;;75.13;26.97;;;0.30;97.30;;;;;;4899359;29;20461;-74
2021/01/18 06:49:00;;;;;;;78.67;24.67;;;0.30;97.30;;;;;;4898897;29;20505;-74
2021/01/18 06:51:28;;;;;;;70.97;23.40;;;0.30;97.30;;;;;;4899807;29;20442;-74
2021/01/18 06:53:56;;;;;;;78.40;25.33;;;0.40;97.30;;;;;;4901143;29;20397;-74
2021/01/18 06:56:35;;;;;;;64.77;22.20;;;0.40;97.30;;;;;;4898766;29;20503;-75
2021/01/18 06:59:37;;;;;;;72.80;24.00;;;0.40;97.30;;;;;;4898693;29;20417;-74
2021/01/18 07:02:20;;;;;;;73.00;24.57;;;0.40;97.30;;;;;;4898731;29;20481;-75
2021/01/18 07:04:47;;;;;;;78.17;24.57;;;0.50;97.30;;;;;;4898593;29;20428;-75
2021/01/18 07:07:26;;;;;;;72.47;24.50;;;0.50;97.30;;;;;;4898660;29;20485;-75
2021/01/18 07:10:02;;;;;;;73.20;22.87;;;0.50;97.30;;;;;;4898878;29;20445;-75
2021/01/18 07:12:28;;;;;;;77.10;23.40;;;0.50;97.30;;;;;;4898245;29;20443;-75
2021/01/18 07:15:03;;;;;;;67.23;24.23;;;0.60;97.30;;;;;;4900056;29;20406;-76
2021/01/18 07:17:44;;;;;;;72.57;23.00;;;0.60;97.30;;;;;;4898880;29;20406;-75
2021/01/18 07:20:25;;;;;;;72.07;22.30;;;0.60;97.30;;;;;;4898137;29;20930;-76
2021/01/18 07:23:09;;;;;;;68.33;22.23;;;0.70;97.30;;;;;;4898665;29;20428;-75
2021/01/18 07:25:40;;;;;;;67.30;20.20;;;0.70;97.30;;;;;;4898572;29;20468;-74
2021/01/18 07:28:08;;;;;;;60.90;18.30;;;0.70;97.30;;;;;;4898147;29;20457;-75
2021/01/18 07:30:37;;;;;;;52.10;19.97;;;0.70;97.30;;;;;;4898267;29;20448;-75
2021/01/18 07:33:12;;;;;;;56.73;20.03;;;0.70;97.30;;;;;;4897621;29;20504;-75
2021/01/18 07:35:40;;;;;;;59.63;18.40;;;0.80;97.30;;;;;;4898007;29;20425;-75
2021/01/18 07:38:17;;;;;;;48.93;18.03;;;0.80;97.30;;;;;;4898365;29;20415;-75
2021/01/18 07:41:06;;;;;;;50.90;16.80;;;0.90;97.30;;;;;;4897633;29;20543;-76
2021/01/18 07:43:35;;;;;;;39.10;16.13;;;0.90;97.30;;;;;;4889255;29;20473;-76
2021/01/18 07:46:25;;;;;;;54.70;17.80;;;0.90;97.30;;;;;;4899551;29;20904;-74
2021/01/18 07:48:54;;;;;;;54.30;16.63;;;1.00;97.30;;;;;;4898550;29;20417;-74
2021/01/18 07:51:24;;;;;;;45.77;16.07;;;1.00;97.30;;;;;;4897153;29;20509;-75
2021/01/18 07:53:51;;;;;;;45.67;14.40;;;1.10;97.30;;;;;;4898356;29;20473;-74
2021/01/18 07:56:33;;;;;;;45.57;15.90;;;1.10;97.30;;;;;;4897789;29;20449;-74
2021/01/18 07:59:00;;;;;;;45.80;15.60;;;1.20;97.30;;;;;;4898417;29;20433;-74
2021/01/18 08:01:31;;;;;;;66.03;19.80;;;1.20;97.30;;;;;;4897873;29;20464;-74
2021/01/18 08:04:16;;;;;;;50.53;17.47;;;1.20;97.30;;;;;;4897322;29;20438;-73
2021/01/18 08:07:02;;;;;;;44.50;14.87;;;1.20;97.30;;;;;;4899154;29;20453;-73
2021/01/18 08:09:28;;;;;;;40.70;15.07;;;1.20;97.30;;;;;;4898801;29;20564;-74
2021/01/18 08:12:13;;;;;;;49.87;15.53;;;1.20;97.30;;;;;;4897206;29;20446;-75
2021/01/18 08:14:48;;;;;;;39.27;14.50;;;1.20;97.30;;;;;;4899104;29;20436;-73
2021/01/18 08:17:17;;;;;;;38.60;13.90;;;1.30;97.30;;;;;;4903414;29;20404;-74
2021/01/18 08:20:06;;;;;;;37.43;13.23;;;1.30;97.30;;;;;;4907847;29;20503;-73
2021/01/18 08:22:32;;;;;;;31.33;13.17;;;1.30;97.30;;;;;;4898642;29;20570;-73
2021/01/18 08:24:57;;;;;;;32.77;12.07;;;1.40;97.30;;;;;;4897267;29;20441;-75
2021/01/18 08:27:38;;;;;;;36.83;12.43;;;1.40;97.30;;;;;;4898459;29;20201;-74
2021/01/18 08:30:26;;;;;;;41.80;12.60;;;1.40;97.30;;;;;;4898155;29;20199;-74
2021/01/18 08:33:03;;;;;;;31.63;11.80;;;1.50;97.30;;;;;;4897293;29;20417;-74
2021/01/18 08:35:33;;;;;;;37.17;14.07;;;1.60;97.30;;;;;;4897817;29;20796;-74
2021/01/18 08:38:08;;;;;;;25.43;9.70;;;1.70;97.30;;;;;;4897653;29;20409;-75
2021/01/18 08:40:37;;;;;;;22.87;11.13;;;1.80;97.30;;;;;;4896972;29;20480;-75
2021/01/18 08:43:03;;;;;;;35.03;10.90;;;2.00;97.30;;;;;;4898551;29;20480;-74
2021/01/18 08:45:36;;;;;;;19.00;7.97;;;2.10;97.30;;;;;;4897804;29;20836;-75
2021/01/18 08:48:05;;;;;;;25.97;10.37;;;2.20;97.30;;;;;;4898111;29;20465;-74
2021/01/18 08:50:35;;;;;;;29.30;11.20;;;2.40;97.30;;;;;;4897043;29;20418;-74
2021/01/18 08:53:21;;;;;;;26.50;9.77;;;2.50;97.30;;;;;;4897477;29;20438;-75
2021/01/18 08:55:47;;;;;;;28.47;10.37;;;2.50;97.30;;;;;;4896711;29;20442;-76
2021/01/18 08:58:13;;;;;;;22.53;8.53;;;2.50;97.30;;;;;;4898211;29;20873;-76
2021/01/18 09:00:46;;;;;;;25.67;8.00;;;2.50;97.30;;;;;;4897138;29;20523;-75
2021/01/18 09:03:20;;;;;;;23.43;8.43;;;2.50;97.30;;;;;;4899601;29;20859;-75
2021/01/18 09:05:57;;;;;;;25.27;7.80;;;2.50;97.30;;;;;;4902165;29;20827;-75
2021/01/18 09:08:27;;;;;;;25.60;8.47;;;2.50;97.30;;;;;;4901254;29;20425;-75
2021/01/18 09:11:04;;;;;;;23.90;8.70;;;2.60;97.30;;;;;;4901677;29;20520;-75
2021/01/18 09:13:32;;;;;;;23.00;7.87;;;2.60;97.30;;;;;;4901046;29;20425;-75
2021/01/18 09:15:59;;;;;;;26.23;11.90;;;2.60;97.30;;;;;;4901158;29;20425;-75
2021/01/18 09:18:26;;;;;;;22.37;8.50;;;2.50;97.30;;;;;;4901650;29;20461;-75
2021/01/18 09:20:56;;;;;;;18.43;8.90;;;2.60;97.30;;;;;;4904024;29;20461;-73
2021/01/18 09:23:25;;;;;;;28.13;9.50;;;2.60;97.30;;;;;;4901046;29;20417;-72
2021/01/18 09:26:04;;;;;;;31.90;8.90;;;2.50;97.30;;;;;;4901401;29;20417;-73
2021/01/18 09:28:29;;;;;;;21.67;8.00;;;2.40;97.30;;;;;;4900191;29;20507;-73
2021/01/18 09:30:55;;;;;;;27.70;10.17;;;2.40;97.30;;;;;;4900258;29;20433;-73
2021/01/18 09:33:27;;;;;;;24.93;7.80;;;2.40;97.30;;;;;;4901285;29;20201;-72
2021/01/18 09:35:53;;;;;;;38.10;9.03;;;2.40;97.30;;;;;;4901380;29;20394;-72
2021/01/18 09:38:18;;;;;;;20.60;9.13;;;2.40;97.30;;;;;;4900878;29;20428;-74
2021/01/18 09:40:44;;;;;;;22.10;9.57;;;2.50;97.30;;;;;;4899651;29;20448;-74
2021/01/18 09:43:12;;;;;;;32.93;11.10;;;2.60;97.30;;;;;;4901492;29;20182;-73
2021/01/18 09:45:38;;;;;;;32.23;10.47;;;2.60;97.30;;;;;;4902160;29;20409;-73
2021/01/18 09:48:09;;;;;;;29.33;10.70;;;2.60;97.30;;;;;;4900047;29;20536;-72
2021/01/18 09:50:36;;;;;;;23.67;9.53;;;2.60;97.30;;;;;;4899607;29;20442;-71
2021/01/18 09:53:06;;;;;;;26.73;9.77;;;2.70;97.30;;;;;;4919381;29;20445;-74
2021/01/18 09:55:46;;;;;;;23.73;7.93;;;2.70;97.30;;;;;;4919753;29;20421;-72
2021/01/18 09:58:23;;;;;;;25.73;10.10;;;2.70;97.30;;;;;;4918391;29;20511;-74
2021/01/18 10:00:50;;;;;;;25.20;10.13;;;2.70;97.30;;;;;;4900967;29;20453;-74
2021/01/18 10:03:30;;;;;;;22.43;8.30;;;2.70;97.30;;;;;;4899468;29;20418;-72
2021/01/18 10:06:13;;;;;;;26.90;7.87;;;2.80;97.30;;;;;;4899905;29;20416;-73
2021/01/18 10:08:41;;;;;;;25.47;8.13;;;2.80;97.30;;;;;;4900745;29;20410;-73
2021/01/18 10:11:08;;;;;;;22.17;8.23;;;2.80;97.30;;;;;;4899075;29;20438;-74
2021/01/18 10:13:33;;;;;;;18.87;8.37;;;2.90;97.30;;;;;;4898958;29;20473;-74
2021/01/18 10:16:07;;;;;;;22.63;8.63;;;2.90;97.30;;;;;;4900280;29;20414;-75
2021/01/18 10:18:41;;;;;;;23.30;8.50;;;3.00;97.30;;;;;;4899405;29;20177;-74
2021/01/18 10:21:08;;;;;;;22.43;8.50;;;3.00;97.30;;;;;;4899113;29;20497;-74
2021/01/18 10:23:39;;;;;;;19.40;7.40;;;3.00;97.30;;;;;;4900008;29;20418;-72
2021/01/18 10:26:22;;;;;;;19.20;7.33;;;3.00;97.30;;;;;;4899282;29;20402;-72
2021/01/18 10:28:59;;;;;;;18.63;7.40;;;3.00;97.30;;;;;;4899299;29;20931;-73
2021/01/18 10:31:34;;;;;;;21.00;7.60;;;3.00;97.30;;;;;;4899809;29;20476;-75
2021/01/18 10:34:17;;;;;;;16.70;7.47;;;3.10;97.30;;;;;;4898960;29;20421;-74
2021/01/18 10:36:49;;;;;;;16.20;6.53;;;3.10;97.30;;;;;;4899245;29;20410;-76
2021/01/18 10:39:31;;;;;;;19.33;8.40;;;3.10;97.30;;;;;;4898106;29;20540;-74
2021/01/18 10:42:11;;;;;;;21.60;8.77;;;3.20;97.30;;;;;;4899791;29;20473;-74
2021/01/18 10:44:39;;;;;;;22.83;8.57;;;3.30;97.30;;;;;;4898653;29;20508;-74
2021/01/18 10:47:05;;;;;;;20.87;8.60;;;3.40;97.30;;;;;;4906547;29;20516;-74
2021/01/18 10:49:34;;;;;;;24.17;9.03;;;3.50;97.30;;;;;;4908655;29;20417;-74
2021/01/18 10:52:11;;;;;;;19.47;7.50;;;3.60;97.30;;;;;;4899919;29;20453;-74
2021/01/18 10:54:37;;;;;;;18.50;7.73;;;3.80;97.30;;;;;;4899282;29;20421;-75
2021/01/18 10:57:19;;;;;;;29.47;7.80;;;3.80;97.30;;;;;;4899357;29;20444;-74
2021/01/18 10:59:45;;;;;;;20.13;7.30;;;3.80;97.30;;;;;;4898507;29;20442;-74
2021/01/18 11:02:13;;;;;;;20.47;7.57;;;3.80;97.30;;;;;;4898611;29;20536;-74
2021/01/18 11:04:46;;;;;;;20.43;7.07;;;3.90;97.30;;;;;;4898290;29;20188;-75
2021/01/18 11:07:13;;;;;;;10.53;5.87;;;4.00;97.30;;;;;;4897989;29;21002;-74
2021/01/18 11:09:39;;;;;;;18.60;7.33;;;4.10;97.30;;;;;;4898761;29;20502;-75
2021/01/18 11:12:06;;;;;;;13.13;6.07;;;4.20;97.30;;;;;;4898354;29;21025;-75
2021/01/18 11:14:32;;;;;;;18.50;6.47;;;4.20;97.30;;;;;;4898262;29;20414;-74
2021/01/18 11:17:07;;;;;;;21.77;6.43;;;4.30;97.30;;;;;;4898748;29;20947;-74
2021/01/18 11:19:34;;;;;;;16.90;6.20;;;4.30;97.30;;;;;;4898338;29;20436;-75
2021/01/18 11:22:00;;;;;;;20.97;6.97;;;4.30;97.30;;;;;;4897663;29;20598;-74
2021/01/18 11:24:26;;;;;;;21.70;7.07;;;4.20;97.30;;;;;;4898427;29;20516;-74
2021/01/18 11:26:53;;;;;;;18.77;6.90;;;4.20;97.30;;;;;;4898841;29;20213;-74
2021/01/18 11:29:19;;;;;;;19.83;6.97;;;4.20;97.30;;;;;;4899119;29;20169;-75
2021/01/18 11:31:46;;;;;;;16.83;6.77;;;4.10;97.30;;;;;;4897475;29;20987;-75
2021/01/18 11:34:13;;;;;;;16.70;6.03;;;4.10;97.30;;;;;;4899713;29;20405;-75
2021/01/18 11:36:39;;;;;;;15.00;6.10;;;4.10;97.30;;;;;;4897660;29;20790;-72
2021/01/18 11:39:06;;;;;;;15.80;7.60;;;4.00;97.30;;;;;;4898911;29;20425;-73
2021/01/18 11:41:36;;;;;;;20.00;6.50;;;4.00;97.30;;;;;;4898746;29;20457;-73
2021/01/18 11:44:04;;;;;;;22.27;7.97;;;4.00;97.30;;;;;;4898967;29;20783;-73
2021/01/18 11:46:31;;;;;;;21.33;7.40;;;4.00;97.30;;;;;;4897368;29;20492;-71
2021/01/18 11:48:57;;;;;;;15.60;6.30;;;4.00;97.30;;;;;;4898655;29;20735;-71
2021/01/18 11:51:23;;;;;;;18.63;7.60;;;4.00;97.30;;;;;;4897064;29;20449;-74
2021/01/18 11:53:49;;;;;;;16.77;6.43;;;4.00;97.30;;;;;;4897513;29;20486;-73
2021/01/18 11:56:15;;;;;;;14.10;6.60;;;4.00;97.30;;;;;;4897428;29;21016;-74
2021/01/18 11:58:42;;;;;;;16.50;7.30;;;4.00;97.30;;;;;;4898817;29;20192;-75
2021/01/18 12:01:08;;;;;;;19.40;6.30;;;4.00;97.30;;;;;;4896830;29;20461;-76
2021/01/18 12:03:34;;;;;;;17.70;6.60;;;4.00;97.30;;;;;;4898540;29;20413;-75
2021/01/18 12:06:00;;;;;;;15.10;6.27;;;4.00;97.30;;;;;;4898823;29;20469;-75
2021/01/18 12:08:25;;;;;;;30.73;7.50;;;4.00;97.30;;;;;;4897905;29;20256;-76
2021/01/18 12:10:51;;;;;;;14.40;6.07;;;4.00;97.30;;;;;;4912282;29;20237;-77
2021/01/18 12:13:17;;;;;;;21.10;7.57;;;3.90;97.30;;;;;;4897893;29;20177;-74
2021/01/18 12:15:44;;;;;;;10.50;5.80;;;3.90;97.30;;;;;;4896881;29;20663;-75
2021/01/18 12:18:10;;;;;;;17.70;7.67;;;3.90;97.30;;;;;;4896457;29;20200;-75
2021/01/18 12:20:37;;;;;;;14.47;7.53;;;3.90;97.30;;;;;;4896377;29;20453;-73
2021/01/18 12:23:03;;;;;;;17.40;8.83;;;3.90;97.30;;;;;;4897192;29;20272;-72
2021/01/18 12:25:29;;;;;;;20.00;8.37;;;3.90;97.30;;;;;;4898253;29;20506;-73
2021/01/18 12:27:56;;;;;;;18.27;7.40;;;3.90;97.30;;;;;;4897244;29;20550;-76
2021/01/18 12:30:26;;;;;;;14.20;6.77;;;3.90;97.30;;;;;;4897086;29;20630;-79
2021/01/18 12:32:53;;;;;;;17.20;7.63;;;3.90;97.30;;;;;;4897727;29;20438;-78
2021/01/18 12:35:19;;;;;;;22.23;8.93;;;3.90;97.30;;;;;;4896724;29;20426;-75
2021/01/18 12:37:45;;;;;;;15.27;8.10;;;3.90;97.30;;;;;;4896635;29;20753;-72
2021/01/18 12:40:12;;;;;;;14.03;8.07;;;3.90;97.30;;;;;;4896200;29;20538;-74
2021/01/18 12:42:45;;;;;;;17.10;7.77;;;4.00;97.30;;;;;;4896550;29;20445;-74
2021/01/18 12:45:13;;;;;;;17.67;7.67;;;4.00;97.30;;;;;;4896944;29;20422;-74
2021/01/18 12:47:39;;;;;;;18.07;7.70;;;4.10;97.30;;;;;;4897788;29;20463;-72
2021/01/18 12:50:06;;;;;;;17.40;8.40;;;4.10;97.30;;;;;;4896509;29;20884;-74
2021/01/18 12:52:32;;;;;;;21.30;7.70;;;4.20;97.30;;;;;;4895890;29;20477;-74
2021/01/18 12:54:58;;;;;;;12.13;6.10;;;4.20;97.30;;;;;;4897221;29;21088;-74
2021/01/18 12:57:23;;;;;;;15.93;7.90;;;4.30;97.30;;;;;;4897763;29;20177;-75
2021/01/18 12:59:49;;;;;;;16.43;6.60;;;4.30;97.30;;;;;;4896152;29;20441;-76
2021/01/18 13:02:15;;;;;;;17.13;8.20;;;4.30;97.30;;;;;;4896579;29;20224;-73
2021/01/18 13:04:41;;;;;;;17.30;7.73;;;4.30;97.30;;;;;;4896658;29;20181;-73
2021/01/18 13:07:06;;;;;;;14.90;7.67;;;4.30;97.30;;;;;;4897723;29;20731;-72
2021/01/18 13:09:32;;;;;;;18.30;8.03;;;4.20;97.30;;;;;;4898038;29;20422;-74
2021/01/18 13:11:58;;;;;;;16.23;7.70;;;4.20;97.30;;;;;;4896617;29;20260;-73
2021/01/18 13:14:23;;;;;;;18.30;8.03;;;4.10;97.30;;;;;;4896135;29;20213;-72
2021/01/18 13:16:54;;;;;;;13.23;7.80;;;4.10;97.30;;;;;;4898070;29;20186;-76
2021/01/18 13:19:20;;;;;;;21.80;7.13;;;4.10;97.30;;;;;;4896372;29;20181;-74
2021/01/18 13:21:53;;;;;;;17.60;8.10;;;4.10;97.30;;;;;;4896549;29;20437;-74
2021/01/18 13:24:19;;;;;;;13.87;6.97;;;4.10;97.30;;;;;;4901515;29;20425;-74
2021/01/18 13:26:44;;;;;;;18.43;7.20;;;4.10;97.30;;;;;;4900877;29;20574;-74
2021/01/18 13:29:10;;;;;;;13.60;5.93;;;4.10;97.30;;;;;;4895799;29;20233;-76
2021/01/18 13:31:41;;;;;;;12.93;6.60;;;4.10;97.30;;;;;;4896411;29;20201;-71
2021/01/18 13:34:07;;;;;;;18.57;7.50;;;4.10;97.30;;;;;;4896689;29;20598;-72
2021/01/18 13:36:34;;;;;;;18.57;8.77;;;4.10;97.30;;;;;;4897618;29;20418;-72
2021/01/18 13:38:59;;;;;;;15.97;7.10;;;4.00;97.30;;;;;;4907881;29;20441;-73
2021/01/18 13:41:25;;;;;;;12.33;6.67;;;4.10;97.30;;;;;;4897108;29;20471;-73
2021/01/18 13:43:51;;;;;;;13.57;6.40;;;4.10;97.30;;;;;;4895638;29;20196;-70
2021/01/18 13:46:23;;;;;;;14.13;6.30;;;4.00;97.30;;;;;;4897047;29;20257;-73
2021/01/18 13:48:51;;;;;;;16.80;6.20;;;4.00;97.30;;;;;;4896165;29;20457;-72
2021/01/18 13:51:22;;;;;;;17.97;7.70;;;4.00;97.30;;;;;;4898932;29;20460;-71
2021/01/18 13:53:49;;;;;;;16.73;7.87;;;4.00;97.30;;;;;;4899008;29;20619;-75
2021/01/18 13:56:21;;;;;;;12.87;6.43;;;4.00;97.30;;;;;;4898995;29;20967;-72
2021/01/18 13:58:46;;;;;;;14.67;5.13;;;4.00;97.30;;;;;;4900061;29;20923;-74
2021/01/18 14:01:26;;;;;;;13.07;5.80;;;4.00;97.30;;;;;;4899734;29;20492;-73
2021/01/18 14:04:00;;;;;;;14.70;6.57;;;4.00;97.30;;;;;;4899169;29;20417;-73
2021/01/18 14:06:31;;;;;;;11.60;6.90;;;4.00;97.30;;;;;;4899098;29;20421;-73
2021/01/18 14:08:58;;;;;;;14.97;7.20;;;4.00;97.30;;;;;;4898927;29;20429;-71
2021/01/18 14:11:33;;;;;;;24.00;7.60;;;4.00;97.30;;;;;;4898877;29;20537;-70
2021/01/18 14:14:00;;;;;;;16.43;6.20;;;4.00;97.30;;;;;;4898777;29;20413;-71
2021/01/18 14:16:26;;;;;;;14.00;5.70;;;4.00;97.30;;;;;;4900295;29;20918;-71
2021/01/18 14:18:52;;;;;;;16.73;7.83;;;4.00;97.30;;;;;;4898697;29;20457;-73
2021/01/18 14:21:18;;;;;;;20.80;6.83;;;4.00;97.30;;;;;;4899110;29;20485;-71
2021/01/18 14:23:44;;;;;;;12.00;6.80;;;3.90;97.30;;;;;;4899057;29;20413;-74
2021/01/18 14:26:10;;;;;;;12.30;6.60;;;3.90;97.30;;;;;;4900258;29;20184;-72
2021/01/18 14:28:37;;;;;;;12.63;6.77;;;3.90;97.30;;;;;;4898444;29;20253;-72
2021/01/18 14:31:02;;;;;;;13.27;7.30;;;3.90;97.30;;;;;;4899490;29;20983;-73
2021/01/18 14:33:28;;;;;;;12.43;6.50;;;3.90;97.30;;;;;;4898568;29;20421;-71
2021/01/18 14:35:53;;;;;;;18.00;6.97;;;3.80;97.30;;;;;;4899269;29;20670;-70
2021/01/18 14:38:19;;;;;;;17.43;7.97;;;3.80;97.30;;;;;;4898655;29;20177;-73
2021/01/18 14:40:45;;;;;;;24.90;9.43;;;3.80;97.30;;;;;;4898258;29;20208;-74
2021/01/18 14:43:10;;;;;;;15.80;7.97;;;3.80;97.30;;;;;;4898252;29;21066;-76
2021/01/18 14:45:36;;;;;;;18.00;7.47;;;3.80;97.30;;;;;;4898056;29;20299;-70
2021/01/18 14:48:02;;;;;;;14.77;7.10;;;3.80;97.30;;;;;;4898235;29;20212;-71
2021/01/18 14:50:27;;;;;;;19.70;8.43;;;3.80;97.30;;;;;;4898107;29;20181;-71
2021/01/18 14:52:53;;;;;;;23.23;7.70;;;3.80;97.30;;;;;;4899675;29;20224;-73
2021/01/18 14:55:19;;;;;;;16.50;8.00;;;3.80;97.30;;;;;;4897877;29;20204;-70
2021/01/18 14:57:45;;;;;;;15.20;6.80;;;3.70;97.30;;;;;;4897751;29;20192;-72
2021/01/18 15:00:11;;;;;;;16.13;7.93;;;3.80;97.30;;;;;;4897851;29;20189;-73
2021/01/18 15:02:41;;;;;;;15.30;7.90;;;3.70;97.30;;;;;;4897921;29;20472;-71
2021/01/18 15:05:08;;;;;;;16.07;7.83;;;3.70;97.30;;;;;;4898294;29;20433;-68
2021/01/18 15:07:38;;;;;;;20.37;8.47;;;3.70;97.30;;;;;;4899272;29;20560;-69
2021/01/18 15:10:05;;;;;;;14.47;7.70;;;3.70;97.30;;;;;;4897681;29;20513;-69
2021/01/18 15:12:31;;;;;;;16.57;7.77;;;3.70;97.30;;;;;;4898938;29;20441;-69
2021/01/18 15:14:56;;;;;;;16.33;7.80;;;3.70;97.30;;;;;;4897715;29;20474;-69
2021/01/18 15:17:22;;;;;;;16.13;7.80;;;3.60;97.30;;;;;;4897214;29;20192;-70
2021/01/18 15:19:47;;;;;;;16.77;8.00;;;3.60;97.30;;;;;;4898841;29;20185;-73
2021/01/18 15:22:13;;;;;;;14.33;7.73;;;3.50;97.30;;;;;;4897610;29;20216;-70
2021/01/18 15:24:39;;;;;;;27.03;10.50;;;3.50;97.30;;;;;;4897259;29;20193;-73
2021/01/18 15:27:07;;;;;;;12.80;7.40;;;3.50;97.30;;;;;;4897946;29;20272;-72
2021/01/18 15:29:32;;;;;;;17.53;7.83;;;3.50;97.30;;;;;;4897420;29;20217;-74
2021/01/18 15:31:58;;;;;;;15.67;8.33;;;3.40;97.30;;;;;;4897728;29;20488;-72
2021/01/18 15:34:24;;;;;;;17.70;8.67;;;3.40;97.30;;;;;;4897936;29;20190;-73
2021/01/18 15:36:53;;;;;;;18.37;7.90;;;3.40;97.30;;;;;;4897681;29;20189;-73
2021/01/18 15:39:21;;;;;;;18.20;7.80;;;3.40;97.30;;;;;;4897661;29;20460;-72
2021/01/18 15:41:47;;;;;;;34.33;9.60;;;3.40;97.30;;;;;;4897565;29;20448;-73
2021/01/18 15:44:13;;;;;;;13.77;7.47;;;3.40;97.30;;;;;;4897276;29;20497;-74
2021/01/18 15:46:39;;;;;;;15.30;8.37;;;3.40;97.30;;;;;;4898621;29;21016;-74
2021/01/18 15:49:05;;;;;;;18.23;8.33;;;3.30;97.30;;;;;;4897258;29;20429;-73
2021/01/18 15:51:31;;;;;;;16.47;7.80;;;3.40;97.30;;;;;;4897591;29;20449;-73
2021/01/18 15:53:56;;;;;;;15.47;8.10;;;3.40;97.30;;;;;;4899690;29;20196;-74
2021/01/18 15:56:28;;;;;;;25.60;9.50;;;3.40;97.30;;;;;;4898320;29;20197;-74
2021/01/18 15:58:53;;;;;;;16.50;7.17;;;3.40;97.30;;;;;;4897441;29;20189;-74
2021/01/18 16:01:19;;;;;;;19.80;8.07;;;3.40;97.30;;;;;;4901088;29;20544;-73
2021/01/18 16:03:45;;;;;;;19.20;7.70;;;3.50;97.30;;;;;;4907087;29;20258;-75
2021/01/18 16:06:11;;;;;;;24.67;9.23;;;3.50;97.30;;;;;;4901101;29;20485;-73
2021/01/18 16:08:37;;;;;;;15.53;8.57;;;3.50;97.30;;;;;;4899335;29;20723;-72
2021/01/18 16:11:03;;;;;;;19.47;7.57;;;3.50;97.30;;;;;;4896671;29;20544;-73
2021/01/18 16:13:29;;;;;;;15.97;7.40;;;3.40;97.30;;;;;;4897313;29;20429;-71
2021/01/18 16:15:55;;;;;;;19.63;8.20;;;3.40;97.30;;;;;;4897880;29;20849;-72
2021/01/18 16:18:21;;;;;;;15.87;7.50;;;3.30;97.30;;;;;;4897103;29;20185;-72
2021/01/18 16:20:47;;;;;;;21.70;8.40;;;3.30;97.30;;;;;;4896616;29;20443;-72
2021/01/18 16:23:13;;;;;;;17.00;8.73;;;3.30;97.30;;;;;;4898773;29;20651;-71
2021/01/18 16:25:38;;;;;;;14.67;7.93;;;3.30;97.30;;;;;;4898607;29;20224;-71
2021/01/18 16:28:04;;;;;;;16.70;8.37;;;3.30;97.30;;;;;;4898333;29;20205;-71
2021/01/18 16:30:30;;;;;;;21.20;8.50;;;3.20;97.30;;;;;;4897191;29;20613;-72
2021/01/18 16:32:56;;;;;;;16.63;8.40;;;3.20;97.30;;;;;;4898365;29;20453;-71
2021/01/18 16:35:22;;;;;;;21.70;9.03;;;3.10;97.30;;;;;;4898102;29;20177;-73
2021/01/18 16:37:47;;;;;;;18.77;8.63;;;3.10;97.30;;;;;;4897035;29;20220;-72
2021/01/18 16:40:21;;;;;;;16.40;7.33;;;3.10;97.30;;;;;;4897122;29;20652;-72
2021/01/18 16:42:48;;;;;;;19.80;8.47;;;3.10;97.30;;;;;;4896691;29;20433;-72
2021/01/18 16:45:14;;;;;;;18.27;8.47;;;3.10;97.30;;;;;;4898097;29;20436;-71
2021/01/18 16:47:45;;;;;;;21.40;8.40;;;3.00;97.30;;;;;;4897012;29;20521;-72
2021/01/18 16:50:12;;;;;;;19.67;8.17;;;3.00;97.30;;;;;;4896465;29;20432;-72
2021/01/18 16:52:47;;;;;;;17.23;8.13;;;3.00;97.30;;;;;;4896654;29;20865;-72
2021/01/18 16:55:13;;;;;;;19.30;8.03;;;3.00;97.30;;;;;;4897954;29;20421;-72
2021/01/18 16:57:40;;;;;;;20.20;8.27;;;3.00;97.30;;;;;;4898100;29;20504;-71
2021/01/18 17:00:10;;;;;;;18.50;7.70;;;2.90;97.30;;;;;;4898009;29;20951;-71
2021/01/18 17:02:36;;;;;;;20.17;9.70;;;3.00;97.30;;;;;;4897090;29;20511;-72
2021/01/18 17:05:04;;;;;;;24.73;9.10;;;2.90;97.30;;;;;;4897871;29;20449;-71
2021/01/18 17:07:29;;;;;;;17.93;8.27;;;2.90;97.30;;;;;;4897992;29;20489;-72
2021/01/18 17:09:55;;;;;;;24.90;9.13;;;2.90;97.30;;;;;;4898234;29;20504;-71
2021/01/18 17:12:21;;;;;;;20.60;8.30;;;2.90;97.30;;;;;;4896567;29;20642;-70
2021/01/18 17:14:48;;;;;;;15.80;8.20;;;2.90;97.30;;;;;;4896758;29;20912;-72
2021/01/18 17:17:13;;;;;;;17.30;7.30;;;2.90;97.30;;;;;;4897100;29;20417;-69
2021/01/18 17:19:39;;;;;;;17.80;9.37;;;2.90;97.30;;;;;;4897863;29;20919;-71
2021/01/18 17:22:05;;;;;;;18.93;7.77;;;3.00;97.30;;;;;;4897547;29;20201;-71
2021/01/18 17:24:32;;;;;;;22.60;8.67;;;2.90;97.30;;;;;;4900070;29;20189;-70
2021/01/18 17:27:00;;;;;;;18.80;8.53;;;3.00;97.30;;;;;;4901417;29;20248;-71
2021/01/18 17:29:27;;;;;;;19.30;8.33;;;2.90;97.30;;;;;;4901590;29;20421;-71
2021/01/18 17:31:52;;;;;;;22.07;9.80;;;2.90;97.30;;;;;;4900430;29;20969;-72
2021/01/18 17:34:18;;;;;;;21.30;9.90;;;2.90;97.30;;;;;;4900268;29;20429;-71
2021/01/18 17:36:45;;;;;;;30.90;9.63;;;2.90;97.30;;;;;;4900047;29;20189;-72
2021/01/18 17:39:13;;;;;;;20.03;8.77;;;2.80;97.30;;;;;;4900872;29;20186;-72
2021/01/18 17:41:39;;;;;;;22.30;9.00;;;2.80;97.30;;;;;;4900276;29;20460;-71
2021/01/18 17:44:06;;;;;;;16.77;7.00;;;2.80;97.30;;;;;;4902537;29;20418;-72
2021/01/18 17:46:34;;;;;;;17.70;8.10;;;2.80;97.30;;;;;;4901898;29;20220;-71
2021/01/18 17:49:01;;;;;;;15.17;7.80;;;2.80;97.30;;;;;;4901298;29;20426;-72
2021/01/18 17:51:28;;;;;;;23.10;9.60;;;2.80;97.30;;;;;;4900811;29;20433;-72
2021/01/18 17:53:54;;;;;;;19.33;8.83;;;2.80;97.30;;;;;;4902055;29;20409;-71
2021/01/18 17:56:20;;;;;;;17.60;8.70;;;2.80;97.30;;;;;;4899712;29;20424;-71
2021/01/18 17:58:46;;;;;;;19.53;9.43;;;2.80;97.30;;;;;;4899791;29;20429;-71
2021/01/18 18:01:12;;;;;;;14.63;7.97;;;2.80;97.30;;;;;;4901029;29;20493;-71
2021/01/18 18:03:38;;;;;;;15.20;8.07;;;2.80;97.30;;;;;;4900820;29;20181;-72
2021/01/18 18:06:05;;;;;;;16.20;7.60;;;2.80;97.30;;;;;;4899667;29;20448;-71
2021/01/18 18:08:31;;;;;;;15.47;7.53;;;2.80;97.30;;;;;;4900381;29;20500;-71
2021/01/18 18:10:57;;;;;;;18.03;7.97;;;2.80;97.30;;;;;;4900475;29;20476;-72
2021/01/18 18:13:24;;;;;;;25.63;10.10;;;2.80;97.30;;;;;;4899275;29;20177;-72
2021/01/18 18:15:51;;;;;;;17.63;8.13;;;2.80;97.30;;;;;;4901228;29;20409;-71
2021/01/18 18:18:17;;;;;;;20.67;8.60;;;2.80;97.30;;;;;;4899419;29;20426;-71
2021/01/18 18:20:43;;;;;;;20.13;8.03;;;2.80;97.30;;;;;;4899087;29;20453;-72
2021/01/18 18:23:12;;;;;;;16.33;7.43;;;2.80;97.30;;;;;;4899952;29;20421;-71
2021/01/18 18:25:38;;;;;;;19.13;7.70;;;2.80;97.30;;;;;;4900550;29;20185;-71
2021/01/18 18:28:04;;;;;;;15.83;8.00;;;2.80;97.30;;;;;;4900354;29;20964;-71
2021/01/18 18:30:30;;;;;;;19.27;8.40;;;2.80;97.30;;;;;;4899883;29;20418;-70
2021/01/18 18:32:55;;;;;;;19.07;7.50;;;2.80;97.30;;;;;;4900460;29;20418;-71
2021/01/18 18:35:22;;;;;;;17.77;8.30;;;2.80;97.30;;;;;;4899823;29;20200;-71
2021/01/18 18:37:47;;;;;;;20.90;9.40;;;2.80;97.30;;;;;;4900978;29;20640;-71
2021/01/18 18:40:15;;;;;;;16.13;8.80;;;2.80;97.30;;;;;;4900163;29;20418;-71
2021/01/18 18:42:47;;;;;;;22.63;8.50;;;2.80;97.30;;;;;;4899765;29;20185;-71
2021/01/18 18:45:12;;;;;;;18.33;7.90;;;2.80;97.30;;;;;;4901546;29;20825;-70
2021/01/18 18:47:42;;;;;;;17.30;9.03;;;2.80;97.30;;;;;;4899448;29;20555;-72
2021/01/18 18:50:08;;;;;;;17.33;8.93;;;2.80;97.30;;;;;;4900115;29;20185;-71
2021/01/18 18:52:40;;;;;;;11.97;6.57;;;2.80;97.30;;;;;;4899091;29;20465;-70